sensor_id;sensor_type;location;lat;lon;timestamp;P1;durP1;ratioP1;P2;durP2;ratioP2
20445;SDS011;10382;49.140;9.234;2022-09-25T00:02:00;44.47;;;8.90;;
20445;SDS011;10382;49.140;9.234;2022-09-25T00:04:26;16.60;;;7.70;;
20445;SDS011;10382;49.140;9.234;2022-09-25T00:06:53;20.47;;;8.60;;
20445;SDS011;10382;49.140;9.234;2022-09-25T00:09:20;17.80;;;6.50;;
20445;SDS011;10382;49.140;9.234;2022-09-25T00:11:47;23.37;;;7.47;;
20445;SDS011;10382;49.140;9.234;2022-09-25T00:14:15;21.70;;;8.40;;
20445;SDS011;10382;49.140;9.234;2022-09-25T00:16:41;20.97;;;8.13;;
20445;SDS011;10382;49.140;9.234;2022-09-25T00:19:10;24.00;;;8.40;;
20445;SDS011;10382;49.140;9.234;2022-09-25T00:22:02;16.27;;;6.53;;
20445;SDS011;10382;49.140;9.234;2022-09-25T00:24:29;15.20;;;6.43;;
20445;SDS011;10382;49.140;9.234;2022-09-25T00:26:57;20.70;;;6.37;;
20445;SDS011;10382;49.140;9.234;2022-09-25T00:29:25;18.33;;;6.30;;
20445;SDS011;10382;49.140;9.234;2022-09-25T00:31:53;19.20;;;7.13;;
20445;SDS011;10382;49.140;9.234;2022-09-25T00:34:21;19.87;;;6.40;;
20445;SDS011;10382;49.140;9.234;2022-09-25T00:36:48;21.97;;;6.97;;
20445;SDS011;10382;49.140;9.234;2022-09-25T00:39:15;18.20;;;7.63;;
20445;SDS011;10382;49.140;9.234;2022-09-25T00:41:42;33.00;;;8.53;;
20445;SDS011;10382;49.140;9.234;2022-09-25T00:47:17;17.87;;;5.90;;
20445;SDS011;10382;49.140;9.234;2022-09-25T00:49:49;22.80;;;7.93;;
20445;SDS011;10382;49.140;9.234;2022-09-25T00:52:18;17.23;;;6.20;;
20445;SDS011;10382;49.140;9.234;2022-09-25T00:54:45;18.50;;;6.50;;
20445;SDS011;10382;49.140;9.234;2022-09-25T00:57:17;18.60;;;6.80;;
20445;SDS011;10382;49.140;9.234;2022-09-25T00:59:48;20.90;;;7.27;;
20445;SDS011;10382;49.140;9.234;2022-09-25T01:02:18;23.63;;;7.73;;
20445;SDS011;10382;49.140;9.234;2022-09-25T01:04:53;17.20;;;6.27;;
20445;SDS011;10382;49.140;9.234;2022-09-25T01:07:22;24.27;;;7.20;;
20445;SDS011;10382;49.140;9.234;2022-09-25T01:09:49;19.50;;;5.50;;
20445;SDS011;10382;49.140;9.234;2022-09-25T01:12:16;24.00;;;6.30;;
20445;SDS011;10382;49.140;9.234;2022-09-25T01:14:43;13.80;;;5.50;;
20445;SDS011;10382;49.140;9.234;2022-09-25T01:17:11;13.10;;;5.27;;
20445;SDS011;10382;49.140;9.234;2022-09-25T01:19:45;11.57;;;5.23;;
20445;SDS011;10382;49.140;9.234;2022-09-25T01:22:23;14.53;;;5.80;;
20445;SDS011;10382;49.140;9.234;2022-09-25T01:25:04;13.10;;;5.13;;
20445;SDS011;10382;49.140;9.234;2022-09-25T01:27:38;15.97;;;5.83;;
20445;SDS011;10382;49.140;9.234;2022-09-25T01:30:17;18.80;;;6.67;;
20445;SDS011;10382;49.140;9.234;2022-09-25T01:35:35;14.33;;;5.10;;
20445;SDS011;10382;49.140;9.234;2022-09-25T01:38:12;27.00;;;6.47;;
20445;SDS011;10382;49.140;9.234;2022-09-25T01:40:50;15.53;;;6.00;;
20445;SDS011;10382;49.140;9.234;2022-09-25T01:43:22;16.17;;;6.17;;
20445;SDS011;10382;49.140;9.234;2022-09-25T01:45:54;16.07;;;5.57;;
20445;SDS011;10382;49.140;9.234;2022-09-25T01:48:24;26.80;;;9.70;;
20445;SDS011;10382;49.140;9.234;2022-09-25T01:50:54;31.17;;;9.53;;
20445;SDS011;10382;49.140;9.234;2022-09-25T01:53:24;26.30;;;8.60;;
20445;SDS011;10382;49.140;9.234;2022-09-25T01:55:56;27.97;;;7.80;;
20445;SDS011;10382;49.140;9.234;2022-09-25T01:58:29;32.03;;;9.97;;
20445;SDS011;10382;49.140;9.234;2022-09-25T02:01:01;23.33;;;8.67;;
20445;SDS011;10382;49.140;9.234;2022-09-25T02:03:31;19.83;;;7.07;;
20445;SDS011;10382;49.140;9.234;2022-09-25T02:06:03;25.83;;;8.73;;
20445;SDS011;10382;49.140;9.234;2022-09-25T02:08:34;28.43;;;8.97;;
20445;SDS011;10382;49.140;9.234;2022-09-25T02:11:04;14.40;;;5.70;;
20445;SDS011;10382;49.140;9.234;2022-09-25T02:13:34;17.93;;;6.67;;
20445;SDS011;10382;49.140;9.234;2022-09-25T02:16:06;14.47;;;5.83;;
20445;SDS011;10382;49.140;9.234;2022-09-25T02:18:36;13.90;;;5.77;;
20445;SDS011;10382;49.140;9.234;2022-09-25T02:21:22;19.43;;;7.80;;
20445;SDS011;10382;49.140;9.234;2022-09-25T02:23:54;22.63;;;7.53;;
20445;SDS011;10382;49.140;9.234;2022-09-25T02:26:29;16.97;;;7.30;;
20445;SDS011;10382;49.140;9.234;2022-09-25T02:28:57;18.80;;;7.33;;
20445;SDS011;10382;49.140;9.234;2022-09-25T02:31:26;19.87;;;7.00;;
20445;SDS011;10382;49.140;9.234;2022-09-25T02:33:56;18.80;;;7.53;;
20445;SDS011;10382;49.140;9.234;2022-09-25T02:36:23;21.73;;;8.63;;
20445;SDS011;10382;49.140;9.234;2022-09-25T02:38:50;17.57;;;6.70;;
20445;SDS011;10382;49.140;9.234;2022-09-25T02:41:22;20.73;;;8.20;;
20445;SDS011;10382;49.140;9.234;2022-09-25T02:44:10;30.07;;;10.33;;
20445;SDS011;10382;49.140;9.234;2022-09-25T02:46:46;13.80;;;7.30;;
20445;SDS011;10382;49.140;9.234;2022-09-25T02:49:24;25.50;;;9.67;;
20445;SDS011;10382;49.140;9.234;2022-09-25T02:52:01;21.90;;;9.93;;
20445;SDS011;10382;49.140;9.234;2022-09-25T02:54:31;22.33;;;9.30;;
20445;SDS011;10382;49.140;9.234;2022-09-25T02:57:05;19.83;;;8.83;;
20445;SDS011;10382;49.140;9.234;2022-09-25T02:59:38;18.47;;;8.67;;
20445;SDS011;10382;49.140;9.234;2022-09-25T03:02:11;26.90;;;10.63;;
20445;SDS011;10382;49.140;9.234;2022-09-25T03:04:39;21.83;;;9.83;;
20445;SDS011;10382;49.140;9.234;2022-09-25T03:07:09;20.30;;;9.43;;
20445;SDS011;10382;49.140;9.234;2022-09-25T03:09:37;18.00;;;8.03;;
20445;SDS011;10382;49.140;9.234;2022-09-25T03:12:06;18.53;;;8.60;;
20445;SDS011;10382;49.140;9.234;2022-09-25T03:14:33;26.83;;;9.87;;
20445;SDS011;10382;49.140;9.234;2022-09-25T03:17:00;17.90;;;8.30;;
20445;SDS011;10382;49.140;9.234;2022-09-25T03:19:30;24.87;;;9.23;;
20445;SDS011;10382;49.140;9.234;2022-09-25T03:21:58;15.97;;;8.27;;
20445;SDS011;10382;49.140;9.234;2022-09-25T03:24:26;22.80;;;10.90;;
20445;SDS011;10382;49.140;9.234;2022-09-25T03:26:53;18.10;;;9.43;;
20445;SDS011;10382;49.140;9.234;2022-09-25T03:29:20;31.87;;;13.20;;
20445;SDS011;10382;49.140;9.234;2022-09-25T03:31:47;21.87;;;11.10;;
20445;SDS011;10382;49.140;9.234;2022-09-25T03:34:15;29.33;;;12.23;;
20445;SDS011;10382;49.140;9.234;2022-09-25T03:36:44;23.77;;;11.00;;
20445;SDS011;10382;49.140;9.234;2022-09-25T03:39:12;19.43;;;12.10;;
20445;SDS011;10382;49.140;9.234;2022-09-25T03:41:41;25.50;;;11.90;;
20445;SDS011;10382;49.140;9.234;2022-09-25T03:44:08;27.33;;;12.60;;
20445;SDS011;10382;49.140;9.234;2022-09-25T03:46:36;29.63;;;12.23;;
20445;SDS011;10382;49.140;9.234;2022-09-25T03:49:03;20.70;;;10.40;;
20445;SDS011;10382;49.140;9.234;2022-09-25T03:51:30;24.03;;;10.43;;
20445;SDS011;10382;49.140;9.234;2022-09-25T03:53:59;17.97;;;10.10;;
20445;SDS011;10382;49.140;9.234;2022-09-25T03:56:26;18.90;;;10.00;;
20445;SDS011;10382;49.140;9.234;2022-09-25T03:58:54;23.30;;;11.03;;
20445;SDS011;10382;49.140;9.234;2022-09-25T04:01:22;21.43;;;11.20;;
20445;SDS011;10382;49.140;9.234;2022-09-25T04:03:50;52.90;;;17.23;;
20445;SDS011;10382;49.140;9.234;2022-09-25T04:06:18;27.83;;;11.87;;
20445;SDS011;10382;49.140;9.234;2022-09-25T04:08:46;29.10;;;12.87;;
20445;SDS011;10382;49.140;9.234;2022-09-25T04:11:15;22.50;;;11.43;;
20445;SDS011;10382;49.140;9.234;2022-09-25T04:13:43;43.13;;;14.50;;
20445;SDS011;10382;49.140;9.234;2022-09-25T04:16:10;22.73;;;11.90;;
20445;SDS011;10382;49.140;9.234;2022-09-25T04:18:38;21.03;;;10.93;;
20445;SDS011;10382;49.140;9.234;2022-09-25T04:21:07;23.80;;;11.00;;
20445;SDS011;10382;49.140;9.234;2022-09-25T04:23:35;31.30;;;13.70;;
20445;SDS011;10382;49.140;9.234;2022-09-25T04:26:03;22.10;;;11.60;;
20445;SDS011;10382;49.140;9.234;2022-09-25T04:28:31;36.47;;;13.97;;
20445;SDS011;10382;49.140;9.234;2022-09-25T04:30:58;20.47;;;11.03;;
20445;SDS011;10382;49.140;9.234;2022-09-25T04:33:26;27.63;;;13.33;;
20445;SDS011;10382;49.140;9.234;2022-09-25T04:36:10;23.87;;;12.07;;
20445;SDS011;10382;49.140;9.234;2022-09-25T04:38:37;40.80;;;14.20;;
20445;SDS011;10382;49.140;9.234;2022-09-25T04:41:04;28.60;;;14.40;;
20445;SDS011;10382;49.140;9.234;2022-09-25T04:43:33;31.33;;;14.87;;
20445;SDS011;10382;49.140;9.234;2022-09-25T04:46:00;25.07;;;14.80;;
20445;SDS011;10382;49.140;9.234;2022-09-25T04:48:28;36.57;;;15.33;;
20445;SDS011;10382;49.140;9.234;2022-09-25T04:50:55;31.83;;;16.30;;
20445;SDS011;10382;49.140;9.234;2022-09-25T04:53:22;33.17;;;15.80;;
20445;SDS011;10382;49.140;9.234;2022-09-25T04:55:50;30.53;;;15.10;;
20445;SDS011;10382;49.140;9.234;2022-09-25T04:58:18;31.80;;;15.37;;
20445;SDS011;10382;49.140;9.234;2022-09-25T05:00:47;32.67;;;16.97;;
20445;SDS011;10382;49.140;9.234;2022-09-25T05:03:14;29.83;;;15.60;;
20445;SDS011;10382;49.140;9.234;2022-09-25T05:05:41;36.43;;;15.73;;
20445;SDS011;10382;49.140;9.234;2022-09-25T05:08:08;31.10;;;16.63;;
20445;SDS011;10382;49.140;9.234;2022-09-25T05:10:35;30.97;;;16.27;;
20445;SDS011;10382;49.140;9.234;2022-09-25T05:13:04;31.00;;;15.00;;
20445;SDS011;10382;49.140;9.234;2022-09-25T05:15:33;35.50;;;16.50;;
20445;SDS011;10382;49.140;9.234;2022-09-25T05:18:02;33.37;;;15.67;;
20445;SDS011;10382;49.140;9.234;2022-09-25T05:20:31;34.47;;;17.00;;
20445;SDS011;10382;49.140;9.234;2022-09-25T05:22:59;31.30;;;16.73;;
20445;SDS011;10382;49.140;9.234;2022-09-25T05:25:28;31.20;;;15.10;;
20445;SDS011;10382;49.140;9.234;2022-09-25T05:27:56;32.33;;;16.53;;
20445;SDS011;10382;49.140;9.234;2022-09-25T05:30:24;29.80;;;14.87;;
20445;SDS011;10382;49.140;9.234;2022-09-25T05:32:52;25.63;;;13.60;;
20445;SDS011;10382;49.140;9.234;2022-09-25T05:35:23;26.70;;;15.63;;
20445;SDS011;10382;49.140;9.234;2022-09-25T05:37:51;34.77;;;14.57;;
20445;SDS011;10382;49.140;9.234;2022-09-25T05:40:18;26.87;;;14.77;;
20445;SDS011;10382;49.140;9.234;2022-09-25T05:42:46;33.73;;;15.47;;
20445;SDS011;10382;49.140;9.234;2022-09-25T05:45:13;31.20;;;15.70;;
20445;SDS011;10382;49.140;9.234;2022-09-25T05:47:40;38.13;;;15.90;;
20445;SDS011;10382;49.140;9.234;2022-09-25T05:50:09;27.37;;;14.40;;
20445;SDS011;10382;49.140;9.234;2022-09-25T05:52:39;29.50;;;15.00;;
20445;SDS011;10382;49.140;9.234;2022-09-25T05:55:06;29.97;;;15.80;;
20445;SDS011;10382;49.140;9.234;2022-09-25T05:57:35;32.73;;;16.30;;
20445;SDS011;10382;49.140;9.234;2022-09-25T06:00:03;43.97;;;16.97;;
20445;SDS011;10382;49.140;9.234;2022-09-25T06:02:31;29.40;;;14.53;;
20445;SDS011;10382;49.140;9.234;2022-09-25T06:04:59;35.47;;;16.93;;
20445;SDS011;10382;49.140;9.234;2022-09-25T06:07:26;38.43;;;16.93;;
20445;SDS011;10382;49.140;9.234;2022-09-25T06:09:54;43.97;;;15.90;;
20445;SDS011;10382;49.140;9.234;2022-09-25T06:12:21;32.93;;;16.00;;
20445;SDS011;10382;49.140;9.234;2022-09-25T06:14:48;39.27;;;17.53;;
20445;SDS011;10382;49.140;9.234;2022-09-25T06:17:16;46.20;;;18.30;;
20445;SDS011;10382;49.140;9.234;2022-09-25T06:19:43;36.83;;;16.57;;
20445;SDS011;10382;49.140;9.234;2022-09-25T06:22:10;32.80;;;15.67;;
20445;SDS011;10382;49.140;9.234;2022-09-25T06:24:37;32.23;;;14.63;;
20445;SDS011;10382;49.140;9.234;2022-09-25T06:27:06;39.03;;;16.43;;
20445;SDS011;10382;49.140;9.234;2022-09-25T06:29:33;31.03;;;15.27;;
20445;SDS011;10382;49.140;9.234;2022-09-25T06:32:00;31.97;;;15.00;;
20445;SDS011;10382;49.140;9.234;2022-09-25T06:34:27;23.97;;;14.10;;
20445;SDS011;10382;49.140;9.234;2022-09-25T06:36:54;33.17;;;16.07;;
20445;SDS011;10382;49.140;9.234;2022-09-25T06:39:21;36.20;;;16.10;;
20445;SDS011;10382;49.140;9.234;2022-09-25T06:41:50;39.00;;;15.63;;
20445;SDS011;10382;49.140;9.234;2022-09-25T06:44:19;29.70;;;15.63;;
20445;SDS011;10382;49.140;9.234;2022-09-25T06:46:47;26.37;;;14.37;;
20445;SDS011;10382;49.140;9.234;2022-09-25T06:49:14;37.77;;;16.60;;
20445;SDS011;10382;49.140;9.234;2022-09-25T06:51:41;27.10;;;15.23;;
20445;SDS011;10382;49.140;9.234;2022-09-25T06:54:08;33.17;;;16.67;;
20445;SDS011;10382;49.140;9.234;2022-09-25T06:56:35;32.97;;;16.33;;
20445;SDS011;10382;49.140;9.234;2022-09-25T06:59:02;37.87;;;16.60;;
20445;SDS011;10382;49.140;9.234;2022-09-25T07:01:30;48.50;;;19.97;;
20445;SDS011;10382;49.140;9.234;2022-09-25T07:03:57;37.13;;;16.80;;
20445;SDS011;10382;49.140;9.234;2022-09-25T07:06:24;29.60;;;15.33;;
20445;SDS011;10382;49.140;9.234;2022-09-25T07:08:55;32.83;;;16.23;;
20445;SDS011;10382;49.140;9.234;2022-09-25T07:11:23;35.83;;;16.90;;
20445;SDS011;10382;49.140;9.234;2022-09-25T07:13:51;31.33;;;14.70;;
20445;SDS011;10382;49.140;9.234;2022-09-25T07:16:19;34.60;;;17.87;;
20445;SDS011;10382;49.140;9.234;2022-09-25T07:18:48;30.37;;;16.20;;
20445;SDS011;10382;49.140;9.234;2022-09-25T07:21:17;41.83;;;18.23;;
20445;SDS011;10382;49.140;9.234;2022-09-25T07:23:45;48.50;;;19.50;;
20445;SDS011;10382;49.140;9.234;2022-09-25T07:26:14;32.90;;;16.60;;
20445;SDS011;10382;49.140;9.234;2022-09-25T07:28:45;28.80;;;14.97;;
20445;SDS011;10382;49.140;9.234;2022-09-25T07:31:13;37.37;;;16.33;;
20445;SDS011;10382;49.140;9.234;2022-09-25T07:33:41;32.77;;;17.17;;
20445;SDS011;10382;49.140;9.234;2022-09-25T07:36:09;36.83;;;16.47;;
20445;SDS011;10382;49.140;9.234;2022-09-25T07:38:37;36.90;;;15.97;;
20445;SDS011;10382;49.140;9.234;2022-09-25T07:41:04;32.37;;;15.03;;
20445;SDS011;10382;49.140;9.234;2022-09-25T07:43:32;40.83;;;15.63;;
20445;SDS011;10382;49.140;9.234;2022-09-25T07:45:58;29.27;;;15.27;;
20445;SDS011;10382;49.140;9.234;2022-09-25T07:48:26;36.33;;;16.00;;
20445;SDS011;10382;49.140;9.234;2022-09-25T07:50:57;32.70;;;14.90;;
20445;SDS011;10382;49.140;9.234;2022-09-25T07:53:26;25.13;;;14.03;;
20445;SDS011;10382;49.140;9.234;2022-09-25T07:55:54;28.40;;;14.80;;
20445;SDS011;10382;49.140;9.234;2022-09-25T07:58:23;35.50;;;16.17;;
20445;SDS011;10382;49.140;9.234;2022-09-25T08:00:50;35.03;;;15.20;;
20445;SDS011;10382;49.140;9.234;2022-09-25T08:03:18;44.50;;;16.13;;
20445;SDS011;10382;49.140;9.234;2022-09-25T08:05:45;33.73;;;15.80;;
20445;SDS011;10382;49.140;9.234;2022-09-25T08:08:12;37.53;;;14.70;;
20445;SDS011;10382;49.140;9.234;2022-09-25T08:10:40;33.43;;;15.17;;
20445;SDS011;10382;49.140;9.234;2022-09-25T08:13:07;37.70;;;15.00;;
20445;SDS011;10382;49.140;9.234;2022-09-25T08:15:34;34.27;;;15.17;;
20445;SDS011;10382;49.140;9.234;2022-09-25T08:18:00;30.33;;;13.37;;
20445;SDS011;10382;49.140;9.234;2022-09-25T08:20:27;28.63;;;12.30;;
20445;SDS011;10382;49.140;9.234;2022-09-25T08:22:54;22.47;;;10.23;;
20445;SDS011;10382;49.140;9.234;2022-09-25T08:25:21;25.93;;;11.17;;
20445;SDS011;10382;49.140;9.234;2022-09-25T08:27:49;25.83;;;11.27;;
20445;SDS011;10382;49.140;9.234;2022-09-25T08:30:16;25.40;;;9.77;;
20445;SDS011;10382;49.140;9.234;2022-09-25T08:32:43;19.53;;;8.10;;
20445;SDS011;10382;49.140;9.234;2022-09-25T08:35:10;21.27;;;8.47;;
20445;SDS011;10382;49.140;9.234;2022-09-25T08:37:39;18.53;;;8.00;;
20445;SDS011;10382;49.140;9.234;2022-09-25T08:40:09;17.20;;;7.20;;
20445;SDS011;10382;49.140;9.234;2022-09-25T08:42:43;24.53;;;8.20;;
20445;SDS011;10382;49.140;9.234;2022-09-25T08:45:18;23.73;;;7.87;;
20445;SDS011;10382;49.140;9.234;2022-09-25T08:48:08;17.70;;;6.57;;
20445;SDS011;10382;49.140;9.234;2022-09-25T08:50:59;33.17;;;9.67;;
20445;SDS011;10382;49.140;9.234;2022-09-25T08:53:29;21.50;;;6.40;;
20445;SDS011;10382;49.140;9.234;2022-09-25T08:55:58;24.10;;;7.60;;
20445;SDS011;10382;49.140;9.234;2022-09-25T08:58:42;23.63;;;7.13;;
20445;SDS011;10382;49.140;9.234;2022-09-25T09:01:18;20.77;;;7.47;;
20445;SDS011;10382;49.140;9.234;2022-09-25T09:03:49;31.63;;;9.87;;
20445;SDS011;10382;49.140;9.234;2022-09-25T09:06:23;20.60;;;7.23;;
20445;SDS011;10382;49.140;9.234;2022-09-25T09:08:53;17.80;;;7.63;;
20445;SDS011;10382;49.140;9.234;2022-09-25T09:11:25;23.70;;;7.57;;
20445;SDS011;10382;49.140;9.234;2022-09-25T09:13:58;23.17;;;7.57;;
20445;SDS011;10382;49.140;9.234;2022-09-25T09:16:31;19.00;;;7.57;;
20445;SDS011;10382;49.140;9.234;2022-09-25T09:19:03;20.37;;;6.27;;
20445;SDS011;10382;49.140;9.234;2022-09-25T09:21:32;20.87;;;7.57;;
20445;SDS011;10382;49.140;9.234;2022-09-25T09:24:04;15.93;;;6.37;;
20445;SDS011;10382;49.140;9.234;2022-09-25T09:26:44;21.00;;;7.13;;
20445;SDS011;10382;49.140;9.234;2022-09-25T09:29:28;20.73;;;6.73;;
20445;SDS011;10382;49.140;9.234;2022-09-25T09:32:10;18.33;;;6.53;;
20445;SDS011;10382;49.140;9.234;2022-09-25T09:34:54;20.40;;;7.37;;
20445;SDS011;10382;49.140;9.234;2022-09-25T09:37:34;19.60;;;6.23;;
20445;SDS011;10382;49.140;9.234;2022-09-25T09:42:58;19.90;;;5.93;;
20445;SDS011;10382;49.140;9.234;2022-09-25T09:45:32;18.10;;;5.67;;
20445;SDS011;10382;49.140;9.234;2022-09-25T09:48:10;13.03;;;5.00;;
20445;SDS011;10382;49.140;9.234;2022-09-25T09:50:42;17.13;;;4.97;;
20445;SDS011;10382;49.140;9.234;2022-09-25T09:53:18;14.97;;;4.37;;
20445;SDS011;10382;49.140;9.234;2022-09-25T09:55:54;13.07;;;4.50;;
20445;SDS011;10382;49.140;9.234;2022-09-25T09:58:25;17.13;;;5.03;;
20445;SDS011;10382;49.140;9.234;2022-09-25T10:00:56;14.73;;;4.33;;
20445;SDS011;10382;49.140;9.234;2022-09-25T10:03:26;15.43;;;5.00;;
20445;SDS011;10382;49.140;9.234;2022-09-25T10:05:55;39.00;;;9.27;;
20445;SDS011;10382;49.140;9.234;2022-09-25T10:08:25;16.83;;;4.30;;
20445;SDS011;10382;49.140;9.234;2022-09-25T10:10:52;22.87;;;5.70;;
20445;SDS011;10382;49.140;9.234;2022-09-25T10:13:21;13.97;;;4.20;;
20445;SDS011;10382;49.140;9.234;2022-09-25T10:15:51;13.00;;;3.63;;
20445;SDS011;10382;49.140;9.234;2022-09-25T10:18:23;13.37;;;3.77;;
20445;SDS011;10382;49.140;9.234;2022-09-25T10:20:56;10.20;;;3.20;;
20445;SDS011;10382;49.140;9.234;2022-09-25T10:23:30;13.30;;;3.80;;
20445;SDS011;10382;49.140;9.234;2022-09-25T10:26:02;17.40;;;3.57;;
20445;SDS011;10382;49.140;9.234;2022-09-25T10:28:31;16.13;;;4.27;;
20445;SDS011;10382;49.140;9.234;2022-09-25T10:31:01;17.77;;;4.50;;
20445;SDS011;10382;49.140;9.234;2022-09-25T10:33:32;14.33;;;4.30;;
20445;SDS011;10382;49.140;9.234;2022-09-25T10:35:59;21.97;;;5.20;;
20445;SDS011;10382;49.140;9.234;2022-09-25T10:38:27;15.13;;;5.43;;
20445;SDS011;10382;49.140;9.234;2022-09-25T10:40:59;15.03;;;5.20;;
20445;SDS011;10382;49.140;9.234;2022-09-25T10:43:29;18.60;;;6.27;;
20445;SDS011;10382;49.140;9.234;2022-09-25T10:46:10;16.50;;;5.90;;
20445;SDS011;10382;49.140;9.234;2022-09-25T10:48:40;15.60;;;5.83;;
20445;SDS011;10382;49.140;9.234;2022-09-25T10:51:25;16.33;;;6.30;;
20445;SDS011;10382;49.140;9.234;2022-09-25T10:53:53;27.93;;;8.47;;
20445;SDS011;10382;49.140;9.234;2022-09-25T10:56:37;15.77;;;6.60;;
20445;SDS011;10382;49.140;9.234;2022-09-25T10:59:08;18.23;;;7.97;;
20445;SDS011;10382;49.140;9.234;2022-09-25T11:01:42;24.60;;;9.17;;
20445;SDS011;10382;49.140;9.234;2022-09-25T11:04:12;18.83;;;8.83;;
20445;SDS011;10382;49.140;9.234;2022-09-25T11:06:43;27.40;;;10.50;;
20445;SDS011;10382;49.140;9.234;2022-09-25T11:09:13;20.80;;;9.17;;
20445;SDS011;10382;49.140;9.234;2022-09-25T11:11:43;21.07;;;10.63;;
20445;SDS011;10382;49.140;9.234;2022-09-25T11:14:17;28.63;;;11.20;;
20445;SDS011;10382;49.140;9.234;2022-09-25T11:16:48;26.77;;;10.57;;
20445;SDS011;10382;49.140;9.234;2022-09-25T11:19:23;22.70;;;10.60;;
20445;SDS011;10382;49.140;9.234;2022-09-25T11:22:04;26.13;;;12.07;;
20445;SDS011;10382;49.140;9.234;2022-09-25T11:24:42;21.20;;;11.07;;
20445;SDS011;10382;49.140;9.234;2022-09-25T11:27:16;22.40;;;11.97;;
20445;SDS011;10382;49.140;9.234;2022-09-25T11:29:49;22.83;;;11.50;;
20445;SDS011;10382;49.140;9.234;2022-09-25T11:32:24;24.87;;;11.93;;
20445;SDS011;10382;49.140;9.234;2022-09-25T11:35:02;29.93;;;11.97;;
20445;SDS011;10382;49.140;9.234;2022-09-25T11:37:49;18.73;;;10.17;;
20445;SDS011;10382;49.140;9.234;2022-09-25T11:40:28;19.93;;;9.87;;
20445;SDS011;10382;49.140;9.234;2022-09-25T11:43:19;18.57;;;9.87;;
20445;SDS011;10382;49.140;9.234;2022-09-25T11:45:57;22.90;;;10.23;;
20445;SDS011;10382;49.140;9.234;2022-09-25T11:48:32;26.03;;;11.30;;
20445;SDS011;10382;49.140;9.234;2022-09-25T11:51:13;20.50;;;9.20;;
20445;SDS011;10382;49.140;9.234;2022-09-25T11:53:48;31.93;;;12.07;;
20445;SDS011;10382;49.140;9.234;2022-09-25T11:56:25;19.37;;;8.97;;
20445;SDS011;10382;49.140;9.234;2022-09-25T11:59:00;17.90;;;8.80;;
20445;SDS011;10382;49.140;9.234;2022-09-25T12:01:37;22.37;;;8.73;;
20445;SDS011;10382;49.140;9.234;2022-09-25T12:04:17;14.00;;;6.30;;
20445;SDS011;10382;49.140;9.234;2022-09-25T12:10:10;25.13;;;8.97;;
20445;SDS011;10382;49.140;9.234;2022-09-25T12:12:56;18.13;;;6.87;;
20445;SDS011;10382;49.140;9.234;2022-09-25T12:15:34;14.47;;;6.30;;
20445;SDS011;10382;49.140;9.234;2022-09-25T12:18:12;19.50;;;8.00;;
20445;SDS011;10382;49.140;9.234;2022-09-25T12:20:47;17.37;;;7.70;;
20445;SDS011;10382;49.140;9.234;2022-09-25T12:23:22;42.03;;;12.50;;
20445;SDS011;10382;49.140;9.234;2022-09-25T12:26:00;21.70;;;9.67;;
20445;SDS011;10382;49.140;9.234;2022-09-25T12:28:42;31.90;;;10.40;;
20445;SDS011;10382;49.140;9.234;2022-09-25T12:31:22;17.47;;;8.00;;
20445;SDS011;10382;49.140;9.234;2022-09-25T12:33:59;21.13;;;8.90;;
20445;SDS011;10382;49.140;9.234;2022-09-25T12:36:35;18.43;;;7.67;;
20445;SDS011;10382;49.140;9.234;2022-09-25T12:39:10;16.03;;;7.17;;
20445;SDS011;10382;49.140;9.234;2022-09-25T12:41:53;33.40;;;10.23;;
20445;SDS011;10382;49.140;9.234;2022-09-25T12:44:41;29.47;;;9.70;;
20445;SDS011;10382;49.140;9.234;2022-09-25T12:47:15;15.37;;;6.27;;
20445;SDS011;10382;49.140;9.234;2022-09-25T12:49:49;12.67;;;5.07;;
20445;SDS011;10382;49.140;9.234;2022-09-25T12:52:23;18.23;;;6.17;;
20445;SDS011;10382;49.140;9.234;2022-09-25T12:54:54;17.20;;;6.27;;
20445;SDS011;10382;49.140;9.234;2022-09-25T12:57:27;22.73;;;8.60;;
20445;SDS011;10382;49.140;9.234;2022-09-25T13:00:03;18.50;;;5.93;;
20445;SDS011;10382;49.140;9.234;2022-09-25T13:02:36;15.07;;;5.97;;
20445;SDS011;10382;49.140;9.234;2022-09-25T13:05:07;31.40;;;9.13;;
20445;SDS011;10382;49.140;9.234;2022-09-25T13:07:41;14.90;;;5.57;;
20445;SDS011;10382;49.140;9.234;2022-09-25T13:10:25;29.30;;;8.70;;
20445;SDS011;10382;49.140;9.234;2022-09-25T13:12:57;17.83;;;5.67;;
20445;SDS011;10382;49.140;9.234;2022-09-25T13:15:29;23.20;;;7.20;;
20445;SDS011;10382;49.140;9.234;2022-09-25T13:17:57;21.90;;;7.40;;
20445;SDS011;10382;49.140;9.234;2022-09-25T13:20:43;22.70;;;7.60;;
20445;SDS011;10382;49.140;9.234;2022-09-25T13:23:13;21.80;;;6.90;;
20445;SDS011;10382;49.140;9.234;2022-09-25T13:25:43;21.63;;;5.77;;
20445;SDS011;10382;49.140;9.234;2022-09-25T13:28:16;21.47;;;6.83;;
20445;SDS011;10382;49.140;9.234;2022-09-25T13:30:59;17.03;;;5.93;;
20445;SDS011;10382;49.140;9.234;2022-09-25T13:33:35;22.90;;;7.03;;
20445;SDS011;10382;49.140;9.234;2022-09-25T13:36:11;21.00;;;6.93;;
20445;SDS011;10382;49.140;9.234;2022-09-25T13:38:58;15.10;;;5.97;;
20445;SDS011;10382;49.140;9.234;2022-09-25T13:41:46;29.43;;;9.00;;
20445;SDS011;10382;49.140;9.234;2022-09-25T13:50:24;26.80;;;6.63;;
20445;SDS011;10382;49.140;9.234;2022-09-25T13:53:09;26.37;;;7.30;;
20445;SDS011;10382;49.140;9.234;2022-09-25T13:56:12;9.37;;;3.50;;
20445;SDS011;10382;49.140;9.234;2022-09-25T13:59:01;14.90;;;4.70;;
20445;SDS011;10382;49.140;9.234;2022-09-25T14:01:58;21.50;;;6.13;;
20445;SDS011;10382;49.140;9.234;2022-09-25T14:05:03;16.67;;;5.57;;
20445;SDS011;10382;49.140;9.234;2022-09-25T14:07:31;15.60;;;4.80;;
20445;SDS011;10382;49.140;9.234;2022-09-25T14:09:59;12.07;;;4.00;;
20445;SDS011;10382;49.140;9.234;2022-09-25T14:12:29;14.50;;;5.63;;
20445;SDS011;10382;49.140;9.234;2022-09-25T14:15:02;20.67;;;6.43;;
20445;SDS011;10382;49.140;9.234;2022-09-25T14:17:34;14.50;;;5.20;;
20445;SDS011;10382;49.140;9.234;2022-09-25T14:20:02;16.70;;;5.20;;
20445;SDS011;10382;49.140;9.234;2022-09-25T14:22:34;13.43;;;4.47;;
20445;SDS011;10382;49.140;9.234;2022-09-25T14:25:22;15.57;;;4.50;;
20445;SDS011;10382;49.140;9.234;2022-09-25T14:27:57;11.43;;;3.93;;
20445;SDS011;10382;49.140;9.234;2022-09-25T14:30:25;16.93;;;5.47;;
20445;SDS011;10382;49.140;9.234;2022-09-25T14:33:03;17.67;;;5.73;;
20445;SDS011;10382;49.140;9.234;2022-09-25T14:35:54;16.30;;;5.40;;
20445;SDS011;10382;49.140;9.234;2022-09-25T14:41:29;24.47;;;6.70;;
20445;SDS011;10382;49.140;9.234;2022-09-25T14:47:30;18.43;;;5.47;;
20445;SDS011;10382;49.140;9.234;2022-09-25T14:50:01;24.40;;;7.20;;
20445;SDS011;10382;49.140;9.234;2022-09-25T14:52:30;20.60;;;6.07;;
20445;SDS011;10382;49.140;9.234;2022-09-25T14:55:02;32.33;;;16.13;;
20445;SDS011;10382;49.140;9.234;2022-09-25T14:57:31;84.10;;;49.23;;
20445;SDS011;10382;49.140;9.234;2022-09-25T15:00:02;30.27;;;7.40;;
20445;SDS011;10382;49.140;9.234;2022-09-25T15:02:31;26.80;;;9.40;;
20445;SDS011;10382;49.140;9.234;2022-09-25T15:07:53;20.57;;;7.17;;
20445;SDS011;10382;49.140;9.234;2022-09-25T15:10:27;21.77;;;7.27;;
20445;SDS011;10382;49.140;9.234;2022-09-25T15:13:06;24.23;;;6.53;;
20445;SDS011;10382;49.140;9.234;2022-09-25T15:15:38;19.03;;;7.13;;
20445;SDS011;10382;49.140;9.234;2022-09-25T15:18:07;19.67;;;7.03;;
20445;SDS011;10382;49.140;9.234;2022-09-25T15:20:42;16.87;;;6.23;;
20445;SDS011;10382;49.140;9.234;2022-09-25T15:23:12;26.40;;;7.93;;